Hovedside
METAR-TAF:

METAR-TAF

Lufthavner :

Uppsala, Sverige

breddegrad: 59-53N, lengdegrad: 017-36E, høyde over havet: 21 m

Gjeldene værobservasjon

Denne rapporten ble laget for 22 minutter siden, klokken 09:50 UTC
Vind 5 kt fra Nord-nordøst, skiftende mellom Nord-nordvest og Øst
Temperatur 28°C
Luftfuktighet 37%
Trykk 1010 hPa
Sikt 10 km eller mer
ingen skyer under 1500 m og ingen bygeskyer

METAR: ESCM 200950Z 03005KT 330V090 CAVOK 28/12 Q1010

Tid: 12:12 (10:12 UTC)

Varsel

Denne rapporten ble laget for 4 timer og 17 minutter siden, klokken 05:55 UTC
Varsel gyldig fra 20. klokken 06 UTC til 20. klokken 10 UTC
Vind 3 kt fra skiftende retning
Sikt 10 km eller mer
ingen skyer under 1500 m og ingen bygeskyer

TAF: ESCM 200555Z 2006/2010 VRB03KT CAVOK RMK MIL

Værobservasjoner og værvarsel for over 4000 flyplasser (METAR- og TAF-rapporter).

Tilgjengelige stasjoner er representert av de røde og gule prikkene på kartet.

Hold musepekeren over prikken for å se navnet på stasjonen.

Klikk så for å se værobservasjoner og -varsler.

For å forandre kartet kan du klikke på den grønne knappen med svart kryss for å zoome inn, på den grønne knappen med strek for å zoome ut, eller på de grønne pilene for å se tilstøtende kart.


METAR-TAF: